sensor_id;sensor_type;location;lat;lon;timestamp;temperature;humidity
53880;DHT22;39791;53.184;5.486;2023-12-20T00:00:52;15.20;16.40
53880;DHT22;39791;53.184;5.486;2023-12-20T00:03:18;15.50;1.00
53880;DHT22;39791;53.184;5.486;2023-12-20T00:05:43;15.20;1.00
53880;DHT22;39791;53.184;5.486;2023-12-20T00:08:09;15.20;99.90
53880;DHT22;39791;53.184;5.486;2023-12-20T00:10:35;15.50;99.90
53880;DHT22;39791;53.184;5.486;2023-12-20T00:13:00;15.40;99.90
53880;DHT22;39791;53.184;5.486;2023-12-20T00:15:26;15.80;99.90
53880;DHT22;39791;53.184;5.486;2023-12-20T00:17:51;15.70;99.90
53880;DHT22;39791;53.184;5.486;2023-12-20T00:20:17;15.70;10.20
53880;DHT22;39791;53.184;5.486;2023-12-20T00:22:42;15.90;1.00
53880;DHT22;39791;53.184;5.486;2023-12-20T00:25:08;16.10;1.00
53880;DHT22;39791;53.184;5.486;2023-12-20T00:27:33;15.90;99.90
53880;DHT22;39791;53.184;5.486;2023-12-20T00:29:59;15.50;99.90
53880;DHT22;39791;53.184;5.486;2023-12-20T00:32:25;16.30;99.90
53880;DHT22;39791;53.184;5.486;2023-12-20T00:34:50;15.80;99.90
53880;DHT22;39791;53.184;5.486;2023-12-20T00:37:16;15.70;99.90
53880;DHT22;39791;53.184;5.486;2023-12-20T00:39:42;15.60;99.90
53880;DHT22;39791;53.184;5.486;2023-12-20T00:42:07;15.80;99.90
53880;DHT22;39791;53.184;5.486;2023-12-20T00:44:33;15.60;99.90
53880;DHT22;39791;53.184;5.486;2023-12-20T00:46:58;15.50;99.90
53880;DHT22;39791;53.184;5.486;2023-12-20T00:49:24;16.00;58.10
53880;DHT22;39791;53.184;5.486;2023-12-20T00:51:50;15.90;99.90
53880;DHT22;39791;53.184;5.486;2023-12-20T00:54:17;16.00;99.90
53880;DHT22;39791;53.184;5.486;2023-12-20T00:56:43;16.10;99.90
53880;DHT22;39791;53.184;5.486;2023-12-20T00:59:09;15.60;99.90
53880;DHT22;39791;53.184;5.486;2023-12-20T01:01:34;16.00;99.90
53880;DHT22;39791;53.184;5.486;2023-12-20T01:04:00;15.60;99.90
53880;DHT22;39791;53.184;5.486;2023-12-20T01:06:25;15.60;99.90
53880;DHT22;39791;53.184;5.486;2023-12-20T01:08:51;15.70;99.90
53880;DHT22;39791;53.184;5.486;2023-12-20T01:11:17;16.10;65.00
53880;DHT22;39791;53.184;5.486;2023-12-20T01:13:42;15.60;1.00
53880;DHT22;39791;53.184;5.486;2023-12-20T01:16:10;16.00;99.90
53880;DHT22;39791;53.184;5.486;2023-12-20T01:18:36;15.80;99.90
53880;DHT22;39791;53.184;5.486;2023-12-20T01:21:03;15.90;1.00
53880;DHT22;39791;53.184;5.486;2023-12-20T01:23:29;16.20;1.00
53880;DHT22;39791;53.184;5.486;2023-12-20T01:25:55;16.10;1.00
53880;DHT22;39791;53.184;5.486;2023-12-20T01:28:20;16.20;99.90
53880;DHT22;39791;53.184;5.486;2023-12-20T01:30:46;15.70;99.90
53880;DHT22;39791;53.184;5.486;2023-12-20T01:33:11;15.90;99.90
53880;DHT22;39791;53.184;5.486;2023-12-20T01:35:37;16.00;99.90
53880;DHT22;39791;53.184;5.486;2023-12-20T01:38:03;15.80;35.20
53880;DHT22;39791;53.184;5.486;2023-12-20T01:40:28;15.90;99.90
53880;DHT22;39791;53.184;5.486;2023-12-20T01:43:09;16.20;99.90
53880;DHT22;39791;53.184;5.486;2023-12-20T01:45:35;16.20;57.40
53880;DHT22;39791;53.184;5.486;2023-12-20T01:48:01;16.20;99.90
53880;DHT22;39791;53.184;5.486;2023-12-20T01:50:28;15.80;99.90
53880;DHT22;39791;53.184;5.486;2023-12-20T01:52:55;16.10;1.00
53880;DHT22;39791;53.184;5.486;2023-12-20T01:55:23;15.90;99.90
53880;DHT22;39791;53.184;5.486;2023-12-20T01:57:49;17.10;99.90
53880;DHT22;39791;53.184;5.486;2023-12-20T02:00:16;15.90;99.90
53880;DHT22;39791;53.184;5.486;2023-12-20T02:02:43;16.10;99.90
53880;DHT22;39791;53.184;5.486;2023-12-20T02:05:10;16.00;99.90
53880;DHT22;39791;53.184;5.486;2023-12-20T02:07:36;16.10;99.90
53880;DHT22;39791;53.184;5.486;2023-12-20T02:10:02;16.20;99.90
53880;DHT22;39791;53.184;5.486;2023-12-20T02:12:29;15.80;99.90
53880;DHT22;39791;53.184;5.486;2023-12-20T02:14:55;15.80;99.90
53880;DHT22;39791;53.184;5.486;2023-12-20T02:17:22;16.20;99.90
53880;DHT22;39791;53.184;5.486;2023-12-20T02:19:47;16.00;99.90
53880;DHT22;39791;53.184;5.486;2023-12-20T02:22:13;16.00;99.90
53880;DHT22;39791;53.184;5.486;2023-12-20T02:24:39;16.10;99.90
53880;DHT22;39791;53.184;5.486;2023-12-20T02:27:06;15.90;99.90
53880;DHT22;39791;53.184;5.486;2023-12-20T02:29:33;16.10;99.90
53880;DHT22;39791;53.184;5.486;2023-12-20T02:31:59;16.10;84.70
53880;DHT22;39791;53.184;5.486;2023-12-20T02:34:24;15.70;99.90
53880;DHT22;39791;53.184;5.486;2023-12-20T02:36:50;16.00;99.90
53880;DHT22;39791;53.184;5.486;2023-12-20T02:39:16;16.00;99.90
53880;DHT22;39791;53.184;5.486;2023-12-20T02:41:42;15.90;99.90
53880;DHT22;39791;53.184;5.486;2023-12-20T02:44:07;16.10;99.90
53880;DHT22;39791;53.184;5.486;2023-12-20T02:46:33;15.70;99.90
53880;DHT22;39791;53.184;5.486;2023-12-20T02:48:59;15.90;99.90
53880;DHT22;39791;53.184;5.486;2023-12-20T02:51:24;16.10;99.90
53880;DHT22;39791;53.184;5.486;2023-12-20T02:53:50;15.70;99.90
53880;DHT22;39791;53.184;5.486;2023-12-20T02:56:15;16.10;1.00
53880;DHT22;39791;53.184;5.486;2023-12-20T02:58:41;15.90;23.90
53880;DHT22;39791;53.184;5.486;2023-12-20T03:01:06;15.80;85.90
53880;DHT22;39791;53.184;5.486;2023-12-20T03:03:32;16.10;99.90
53880;DHT22;39791;53.184;5.486;2023-12-20T03:05:58;15.80;99.90
53880;DHT22;39791;53.184;5.486;2023-12-20T03:08:23;16.10;99.90
53880;DHT22;39791;53.184;5.486;2023-12-20T03:10:49;15.80;1.00
53880;DHT22;39791;53.184;5.486;2023-12-20T03:13:14;15.80;99.90
53880;DHT22;39791;53.184;5.486;2023-12-20T03:15:40;16.20;99.90
53880;DHT22;39791;53.184;5.486;2023-12-20T03:18:06;16.20;97.50
53880;DHT22;39791;53.184;5.486;2023-12-20T03:20:31;15.90;99.90
53880;DHT22;39791;53.184;5.486;2023-12-20T03:23:00;16.40;3.40
53880;DHT22;39791;53.184;5.486;2023-12-20T03:25:26;16.00;1.00
53880;DHT22;39791;53.184;5.486;2023-12-20T03:27:52;16.50;1.00
53880;DHT22;39791;53.184;5.486;2023-12-20T03:30:18;17.40;48.30
53880;DHT22;39791;53.184;5.486;2023-12-20T03:32:43;16.00;55.80
53880;DHT22;39791;53.184;5.486;2023-12-20T03:35:09;16.00;99.90
53880;DHT22;39791;53.184;5.486;2023-12-20T03:37:35;16.00;99.90
53880;DHT22;39791;53.184;5.486;2023-12-20T03:40:01;16.70;99.90
53880;DHT22;39791;53.184;5.486;2023-12-20T03:42:26;16.00;1.00
53880;DHT22;39791;53.184;5.486;2023-12-20T03:44:52;16.30;17.50
53880;DHT22;39791;53.184;5.486;2023-12-20T03:47:17;16.20;5.20
53880;DHT22;39791;53.184;5.486;2023-12-20T03:49:43;16.30;21.00
53880;DHT22;39791;53.184;5.486;2023-12-20T03:52:08;16.30;45.50
53880;DHT22;39791;53.184;5.486;2023-12-20T03:54:35;16.00;99.90
53880;DHT22;39791;53.184;5.486;2023-12-20T03:57:01;15.90;99.90
53880;DHT22;39791;53.184;5.486;2023-12-20T03:59:27;16.00;99.90
53880;DHT22;39791;53.184;5.486;2023-12-20T04:01:52;16.10;99.90
53880;DHT22;39791;53.184;5.486;2023-12-20T04:04:19;16.00;1.00
53880;DHT22;39791;53.184;5.486;2023-12-20T04:06:44;15.80;99.90
53880;DHT22;39791;53.184;5.486;2023-12-20T04:09:10;16.20;22.30
53880;DHT22;39791;53.184;5.486;2023-12-20T04:11:36;16.20;1.00
53880;DHT22;39791;53.184;5.486;2023-12-20T04:14:02;16.30;1.00
53880;DHT22;39791;53.184;5.486;2023-12-20T04:16:27;16.00;1.00
53880;DHT22;39791;53.184;5.486;2023-12-20T04:18:53;16.40;99.90
53880;DHT22;39791;53.184;5.486;2023-12-20T04:21:18;16.10;1.00
53880;DHT22;39791;53.184;5.486;2023-12-20T04:23:44;16.10;1.00
53880;DHT22;39791;53.184;5.486;2023-12-20T04:26:10;16.30;99.90
53880;DHT22;39791;53.184;5.486;2023-12-20T04:28:36;16.10;99.90
53880;DHT22;39791;53.184;5.486;2023-12-20T04:31:01;16.00;99.90
53880;DHT22;39791;53.184;5.486;2023-12-20T04:33:27;16.30;64.90
53880;DHT22;39791;53.184;5.486;2023-12-20T04:35:52;16.00;1.00
53880;DHT22;39791;53.184;5.486;2023-12-20T04:38:18;16.10;1.00
53880;DHT22;39791;53.184;5.486;2023-12-20T04:40:44;16.30;1.00
53880;DHT22;39791;53.184;5.486;2023-12-20T04:43:09;16.00;1.00
53880;DHT22;39791;53.184;5.486;2023-12-20T04:45:35;16.30;99.90
53880;DHT22;39791;53.184;5.486;2023-12-20T04:48:01;16.30;1.00
53880;DHT22;39791;53.184;5.486;2023-12-20T04:50:27;16.40;1.00
53880;DHT22;39791;53.184;5.486;2023-12-20T04:52:53;16.20;1.00
53880;DHT22;39791;53.184;5.486;2023-12-20T04:55:19;16.00;1.00
53880;DHT22;39791;53.184;5.486;2023-12-20T04:57:45;16.30;1.00
53880;DHT22;39791;53.184;5.486;2023-12-20T05:00:11;16.10;1.00
53880;DHT22;39791;53.184;5.486;2023-12-20T05:02:37;16.30;1.00
53880;DHT22;39791;53.184;5.486;2023-12-20T05:05:03;16.40;1.00
53880;DHT22;39791;53.184;5.486;2023-12-20T05:07:29;16.40;30.90
53880;DHT22;39791;53.184;5.486;2023-12-20T05:09:54;16.30;83.40
53880;DHT22;39791;53.184;5.486;2023-12-20T05:12:20;16.10;87.80
53880;DHT22;39791;53.184;5.486;2023-12-20T05:14:46;16.10;1.00
53880;DHT22;39791;53.184;5.486;2023-12-20T05:17:11;16.20;99.90
53880;DHT22;39791;53.184;5.486;2023-12-20T05:19:37;16.40;1.00
53880;DHT22;39791;53.184;5.486;2023-12-20T05:22:03;16.50;99.90
53880;DHT22;39791;53.184;5.486;2023-12-20T05:24:29;16.50;99.90
53880;DHT22;39791;53.184;5.486;2023-12-20T05:26:54;16.30;99.90
53880;DHT22;39791;53.184;5.486;2023-12-20T05:29:20;16.10;99.90
53880;DHT22;39791;53.184;5.486;2023-12-20T05:31:46;16.10;99.90
53880;DHT22;39791;53.184;5.486;2023-12-20T05:34:11;16.10;1.00
53880;DHT22;39791;53.184;5.486;2023-12-20T05:36:37;16.40;1.00
53880;DHT22;39791;53.184;5.486;2023-12-20T05:39:04;16.50;1.00
53880;DHT22;39791;53.184;5.486;2023-12-20T05:41:30;16.20;1.00
53880;DHT22;39791;53.184;5.486;2023-12-20T05:43:56;16.30;1.00
53880;DHT22;39791;53.184;5.486;2023-12-20T05:46:23;16.20;99.90
53880;DHT22;39791;53.184;5.486;2023-12-20T05:48:49;16.50;99.90
53880;DHT22;39791;53.184;5.486;2023-12-20T05:51:15;16.50;1.00
53880;DHT22;39791;53.184;5.486;2023-12-20T05:53:41;16.30;17.90
53880;DHT22;39791;53.184;5.486;2023-12-20T05:56:06;16.20;79.10
53880;DHT22;39791;53.184;5.486;2023-12-20T05:58:33;16.40;99.90
53880;DHT22;39791;53.184;5.486;2023-12-20T06:00:58;16.40;99.90
53880;DHT22;39791;53.184;5.486;2023-12-20T06:03:24;16.50;41.10
53880;DHT22;39791;53.184;5.486;2023-12-20T06:05:49;16.30;99.90
53880;DHT22;39791;53.184;5.486;2023-12-20T06:08:15;16.10;99.90
53880;DHT22;39791;53.184;5.486;2023-12-20T06:10:41;16.50;99.90
53880;DHT22;39791;53.184;5.486;2023-12-20T06:13:06;16.20;99.90
53880;DHT22;39791;53.184;5.486;2023-12-20T06:15:32;16.20;99.90
53880;DHT22;39791;53.184;5.486;2023-12-20T06:17:58;16.30;99.90
53880;DHT22;39791;53.184;5.486;2023-12-20T06:20:24;16.20;99.90
53880;DHT22;39791;53.184;5.486;2023-12-20T06:22:50;16.20;99.90
53880;DHT22;39791;53.184;5.486;2023-12-20T06:25:16;17.20;99.90
53880;DHT22;39791;53.184;5.486;2023-12-20T06:27:42;16.50;99.90
53880;DHT22;39791;53.184;5.486;2023-12-20T06:30:08;16.50;99.90
53880;DHT22;39791;53.184;5.486;2023-12-20T06:32:36;16.50;99.90
53880;DHT22;39791;53.184;5.486;2023-12-20T06:35:04;16.20;99.90
53880;DHT22;39791;53.184;5.486;2023-12-20T06:37:30;16.30;1.00
53880;DHT22;39791;53.184;5.486;2023-12-20T06:39:56;16.40;99.90
53880;DHT22;39791;53.184;5.486;2023-12-20T06:42:22;16.60;1.00
53880;DHT22;39791;53.184;5.486;2023-12-20T06:44:48;16.50;1.00
53880;DHT22;39791;53.184;5.486;2023-12-20T06:47:13;16.20;1.00
53880;DHT22;39791;53.184;5.486;2023-12-20T06:49:40;16.30;1.00
53880;DHT22;39791;53.184;5.486;2023-12-20T06:52:05;16.20;1.00
53880;DHT22;39791;53.184;5.486;2023-12-20T06:54:31;16.20;99.90
53880;DHT22;39791;53.184;5.486;2023-12-20T06:56:57;16.50;99.90
53880;DHT22;39791;53.184;5.486;2023-12-20T06:59:22;16.20;99.90
53880;DHT22;39791;53.184;5.486;2023-12-20T07:01:48;16.30;99.90
53880;DHT22;39791;53.184;5.486;2023-12-20T07:04:15;16.40;99.90
53880;DHT22;39791;53.184;5.486;2023-12-20T07:06:40;16.60;86.40
53880;DHT22;39791;53.184;5.486;2023-12-20T07:09:06;16.30;99.90
53880;DHT22;39791;53.184;5.486;2023-12-20T07:11:32;16.40;99.90
53880;DHT22;39791;53.184;5.486;2023-12-20T07:13:57;17.10;99.90
53880;DHT22;39791;53.184;5.486;2023-12-20T07:16:23;17.20;44.10
53880;DHT22;39791;53.184;5.486;2023-12-20T07:18:48;16.50;72.50
53880;DHT22;39791;53.184;5.486;2023-12-20T07:21:14;16.40;1.00
53880;DHT22;39791;53.184;5.486;2023-12-20T07:23:39;16.30;1.00
53880;DHT22;39791;53.184;5.486;2023-12-20T07:26:05;16.60;55.30
53880;DHT22;39791;53.184;5.486;2023-12-20T07:28:31;16.40;99.90
53880;DHT22;39791;53.184;5.486;2023-12-20T07:30:57;16.50;99.90
53880;DHT22;39791;53.184;5.486;2023-12-20T07:33:22;16.30;99.90
53880;DHT22;39791;53.184;5.486;2023-12-20T07:35:48;16.20;1.00
53880;DHT22;39791;53.184;5.486;2023-12-20T07:38:13;16.50;99.90
53880;DHT22;39791;53.184;5.486;2023-12-20T07:40:39;16.50;1.00
53880;DHT22;39791;53.184;5.486;2023-12-20T07:43:04;16.60;66.50
53880;DHT22;39791;53.184;5.486;2023-12-20T07:45:30;16.30;99.90
53880;DHT22;39791;53.184;5.486;2023-12-20T07:47:55;16.20;1.00
53880;DHT22;39791;53.184;5.486;2023-12-20T07:50:21;16.50;99.90
53880;DHT22;39791;53.184;5.486;2023-12-20T07:52:47;16.30;99.90
53880;DHT22;39791;53.184;5.486;2023-12-20T07:55:12;16.40;1.00
53880;DHT22;39791;53.184;5.486;2023-12-20T07:57:38;16.60;1.00
53880;DHT22;39791;53.184;5.486;2023-12-20T08:00:04;16.40;99.90
53880;DHT22;39791;53.184;5.486;2023-12-20T08:02:29;16.30;99.90
53880;DHT22;39791;53.184;5.486;2023-12-20T08:04:55;16.60;99.90
53880;DHT22;39791;53.184;5.486;2023-12-20T08:07:21;16.30;99.90
53880;DHT22;39791;53.184;5.486;2023-12-20T08:09:46;16.30;30.00
53880;DHT22;39791;53.184;5.486;2023-12-20T08:12:12;16.30;99.90
53880;DHT22;39791;53.184;5.486;2023-12-20T08:14:37;16.50;99.90
53880;DHT22;39791;53.184;5.486;2023-12-20T08:17:03;16.60;99.90
53880;DHT22;39791;53.184;5.486;2023-12-20T08:19:28;16.30;99.90
53880;DHT22;39791;53.184;5.486;2023-12-20T08:21:54;16.60;99.90
53880;DHT22;39791;53.184;5.486;2023-12-20T08:24:20;16.40;99.90
53880;DHT22;39791;53.184;5.486;2023-12-20T08:26:45;17.20;99.90
53880;DHT22;39791;53.184;5.486;2023-12-20T08:29:13;16.70;65.50
53880;DHT22;39791;53.184;5.486;2023-12-20T08:31:39;16.50;99.90
53880;DHT22;39791;53.184;5.486;2023-12-20T08:34:05;16.40;1.00
53880;DHT22;39791;53.184;5.486;2023-12-20T08:36:30;16.50;1.00
53880;DHT22;39791;53.184;5.486;2023-12-20T08:38:56;16.60;1.00
53880;DHT22;39791;53.184;5.486;2023-12-20T08:41:21;16.00;99.90
53880;DHT22;39791;53.184;5.486;2023-12-20T08:43:47;16.30;99.90
53880;DHT22;39791;53.184;5.486;2023-12-20T08:46:14;16.40;1.00
53880;DHT22;39791;53.184;5.486;2023-12-20T08:48:40;16.40;99.90
53880;DHT22;39791;53.184;5.486;2023-12-20T08:51:05;16.40;99.90
53880;DHT22;39791;53.184;5.486;2023-12-20T08:53:34;16.70;1.00
53880;DHT22;39791;53.184;5.486;2023-12-20T08:56:00;16.10;99.90
53880;DHT22;39791;53.184;5.486;2023-12-20T08:58:28;16.50;1.00
53880;DHT22;39791;53.184;5.486;2023-12-20T09:00:53;16.40;99.90
53880;DHT22;39791;53.184;5.486;2023-12-20T09:03:19;16.40;99.90
53880;DHT22;39791;53.184;5.486;2023-12-20T09:05:44;16.30;1.00
53880;DHT22;39791;53.184;5.486;2023-12-20T09:08:10;15.60;99.90
53880;DHT22;39791;53.184;5.486;2023-12-20T09:10:37;15.50;23.10
53880;DHT22;39791;53.184;5.486;2023-12-20T09:13:02;15.10;99.90
53880;DHT22;39791;53.184;5.486;2023-12-20T09:15:29;15.10;99.90
53880;DHT22;39791;53.184;5.486;2023-12-20T09:17:55;15.10;99.90
53880;DHT22;39791;53.184;5.486;2023-12-20T09:20:21;14.80;1.00
53880;DHT22;39791;53.184;5.486;2023-12-20T09:22:49;14.60;94.80
53880;DHT22;39791;53.184;5.486;2023-12-20T09:25:14;14.60;99.90
53880;DHT22;39791;53.184;5.486;2023-12-20T09:27:41;14.90;99.90
53880;DHT22;39791;53.184;5.486;2023-12-20T09:30:07;14.90;99.90
53880;DHT22;39791;53.184;5.486;2023-12-20T09:32:32;15.20;99.90
53880;DHT22;39791;53.184;5.486;2023-12-20T09:34:58;15.10;99.90
53880;DHT22;39791;53.184;5.486;2023-12-20T09:37:27;15.20;1.00
53880;DHT22;39791;53.184;5.486;2023-12-20T09:39:53;15.30;99.90
53880;DHT22;39791;53.184;5.486;2023-12-20T09:42:25;15.30;99.90
53880;DHT22;39791;53.184;5.486;2023-12-20T09:44:55;15.30;99.90
53880;DHT22;39791;53.184;5.486;2023-12-20T09:47:23;15.00;1.00
53880;DHT22;39791;53.184;5.486;2023-12-20T09:49:50;15.40;99.90
53880;DHT22;39791;53.184;5.486;2023-12-20T09:52:42;15.30;99.90
53880;DHT22;39791;53.184;5.486;2023-12-20T09:55:09;15.10;99.90
53880;DHT22;39791;53.184;5.486;2023-12-20T09:57:35;16.10;99.90
53880;DHT22;39791;53.184;5.486;2023-12-20T10:00:01;15.20;99.90
53880;DHT22;39791;53.184;5.486;2023-12-20T10:02:27;15.30;99.90
53880;DHT22;39791;53.184;5.486;2023-12-20T10:04:54;16.30;99.90
53880;DHT22;39791;53.184;5.486;2023-12-20T10:07:19;15.60;99.90
53880;DHT22;39791;53.184;5.486;2023-12-20T10:09:46;15.60;99.90
53880;DHT22;39791;53.184;5.486;2023-12-20T10:12:12;15.80;99.90
53880;DHT22;39791;53.184;5.486;2023-12-20T10:14:39;15.60;1.00
53880;DHT22;39791;53.184;5.486;2023-12-20T10:17:05;15.90;1.00
53880;DHT22;39791;53.184;5.486;2023-12-20T10:19:34;15.80;99.90
53880;DHT22;39791;53.184;5.486;2023-12-20T10:22:00;15.90;99.90
53880;DHT22;39791;53.184;5.486;2023-12-20T10:24:28;15.80;99.90
53880;DHT22;39791;53.184;5.486;2023-12-20T10:27:05;15.90;1.00
53880;DHT22;39791;53.184;5.486;2023-12-20T10:29:35;16.00;1.00
53880;DHT22;39791;53.184;5.486;2023-12-20T10:32:25;15.80;1.00
53880;DHT22;39791;53.184;5.486;2023-12-20T10:34:51;15.90;1.00
53880;DHT22;39791;53.184;5.486;2023-12-20T10:37:17;15.80;1.00
53880;DHT22;39791;53.184;5.486;2023-12-20T10:39:43;15.90;1.00
53880;DHT22;39791;53.184;5.486;2023-12-20T10:42:12;15.80;1.00
53880;DHT22;39791;53.184;5.486;2023-12-20T10:44:38;15.80;1.00
53880;DHT22;39791;53.184;5.486;2023-12-20T10:47:05;16.00;99.90
53880;DHT22;39791;53.184;5.486;2023-12-20T10:49:34;16.00;99.90
53880;DHT22;39791;53.184;5.486;2023-12-20T10:52:03;16.10;99.90
53880;DHT22;39791;53.184;5.486;2023-12-20T10:54:29;16.10;99.90
53880;DHT22;39791;53.184;5.486;2023-12-20T10:56:57;16.10;99.90
53880;DHT22;39791;53.184;5.486;2023-12-20T10:59:23;16.20;99.90
53880;DHT22;39791;53.184;5.486;2023-12-20T11:01:50;16.10;99.90
53880;DHT22;39791;53.184;5.486;2023-12-20T11:04:23;16.10;99.90
53880;DHT22;39791;53.184;5.486;2023-12-20T11:06:56;16.20;99.90
53880;DHT22;39791;53.184;5.486;2023-12-20T11:09:40;16.20;99.90
53880;DHT22;39791;53.184;5.486;2023-12-20T11:12:20;16.10;99.90
53880;DHT22;39791;53.184;5.486;2023-12-20T11:14:50;16.00;99.90
53880;DHT22;39791;53.184;5.486;2023-12-20T11:17:17;16.10;99.90
53880;DHT22;39791;53.184;5.486;2023-12-20T11:22:21;16.30;1.00
53880;DHT22;39791;53.184;5.486;2023-12-20T11:24:48;16.30;1.00
53880;DHT22;39791;53.184;5.486;2023-12-20T11:27:14;16.30;1.00
53880;DHT22;39791;53.184;5.486;2023-12-20T11:29:41;16.10;1.00
53880;DHT22;39791;53.184;5.486;2023-12-20T11:37:36;16.10;99.90
53880;DHT22;39791;53.184;5.486;2023-12-20T11:40:05;16.60;99.90
53880;DHT22;39791;53.184;5.486;2023-12-20T11:42:39;16.20;6.50
53880;DHT22;39791;53.184;5.486;2023-12-20T11:45:08;15.90;73.30
53880;DHT22;39791;53.184;5.486;2023-12-20T11:47:34;16.10;1.00
53880;DHT22;39791;53.184;5.486;2023-12-20T11:50:00;15.80;1.00
53880;DHT22;39791;53.184;5.486;2023-12-20T11:52:29;15.90;99.90
53880;DHT22;39791;53.184;5.486;2023-12-20T11:54:55;15.80;99.90
53880;DHT22;39791;53.184;5.486;2023-12-20T11:57:20;15.60;22.60
53880;DHT22;39791;53.184;5.486;2023-12-20T11:59:46;15.80;1.00
53880;DHT22;39791;53.184;5.486;2023-12-20T12:02:12;15.60;99.90
53880;DHT22;39791;53.184;5.486;2023-12-20T12:04:38;15.50;1.00
53880;DHT22;39791;53.184;5.486;2023-12-20T12:07:04;15.50;69.50
53880;DHT22;39791;53.184;5.486;2023-12-20T12:09:29;15.50;99.90
53880;DHT22;39791;53.184;5.486;2023-12-20T12:11:55;15.30;1.00
53880;DHT22;39791;53.184;5.486;2023-12-20T12:14:20;15.30;99.90
53880;DHT22;39791;53.184;5.486;2023-12-20T12:16:46;15.50;99.90
53880;DHT22;39791;53.184;5.486;2023-12-20T12:19:25;15.40;38.30
53880;DHT22;39791;53.184;5.486;2023-12-20T12:22:08;15.20;99.90
53880;DHT22;39791;53.184;5.486;2023-12-20T12:24:36;15.20;1.00
53880;DHT22;39791;53.184;5.486;2023-12-20T12:27:05;15.30;63.20
53880;DHT22;39791;53.184;5.486;2023-12-20T12:29:31;15.20;99.90
53880;DHT22;39791;53.184;5.486;2023-12-20T12:31:56;15.30;14.60
53880;DHT22;39791;53.184;5.486;2023-12-20T12:34:22;15.00;99.90
53880;DHT22;39791;53.184;5.486;2023-12-20T12:36:48;15.50;1.00
53880;DHT22;39791;53.184;5.486;2023-12-20T12:39:14;15.20;99.90
53880;DHT22;39791;53.184;5.486;2023-12-20T12:41:43;15.10;1.00
53880;DHT22;39791;53.184;5.486;2023-12-20T12:44:08;15.10;99.90
53880;DHT22;39791;53.184;5.486;2023-12-20T12:46:34;14.80;99.90
53880;DHT22;39791;53.184;5.486;2023-12-20T12:49:00;15.10;1.00
53880;DHT22;39791;53.184;5.486;2023-12-20T12:51:32;15.30;99.90
53880;DHT22;39791;53.184;5.486;2023-12-20T12:54:12;15.30;99.90
53880;DHT22;39791;53.184;5.486;2023-12-20T12:57:02;15.00;1.00
53880;DHT22;39791;53.184;5.486;2023-12-20T13:00:00;14.90;92.30
53880;DHT22;39791;53.184;5.486;2023-12-20T13:02:35;15.00;1.00
53880;DHT22;39791;53.184;5.486;2023-12-20T13:05:03;14.70;50.60
53880;DHT22;39791;53.184;5.486;2023-12-20T13:07:29;14.90;99.90
53880;DHT22;39791;53.184;5.486;2023-12-20T13:09:55;14.90;99.90
53880;DHT22;39791;53.184;5.486;2023-12-20T13:12:21;14.60;1.00
53880;DHT22;39791;53.184;5.486;2023-12-20T13:14:47;15.20;71.10
53880;DHT22;39791;53.184;5.486;2023-12-20T13:17:12;14.70;99.90
53880;DHT22;39791;53.184;5.486;2023-12-20T13:19:38;14.70;99.90
53880;DHT22;39791;53.184;5.486;2023-12-20T13:22:03;14.60;99.90
53880;DHT22;39791;53.184;5.486;2023-12-20T13:24:29;15.00;99.90
53880;DHT22;39791;53.184;5.486;2023-12-20T13:26:55;14.60;99.90
53880;DHT22;39791;53.184;5.486;2023-12-20T13:29:20;15.30;99.90
53880;DHT22;39791;53.184;5.486;2023-12-20T13:31:46;15.00;99.90
53880;DHT22;39791;53.184;5.486;2023-12-20T13:34:12;14.60;99.90
53880;DHT22;39791;53.184;5.486;2023-12-20T13:36:38;15.30;99.90
53880;DHT22;39791;53.184;5.486;2023-12-20T13:39:04;15.40;99.90
53880;DHT22;39791;53.184;5.486;2023-12-20T13:41:30;15.30;99.90
53880;DHT22;39791;53.184;5.486;2023-12-20T13:43:56;15.50;99.90
53880;DHT22;39791;53.184;5.486;2023-12-20T13:46:21;15.10;99.90
53880;DHT22;39791;53.184;5.486;2023-12-20T13:48:48;15.60;99.90
53880;DHT22;39791;53.184;5.486;2023-12-20T13:51:15;14.80;99.90
53880;DHT22;39791;53.184;5.486;2023-12-20T13:53:40;14.90;99.90
53880;DHT22;39791;53.184;5.486;2023-12-20T13:56:06;15.90;99.90
53880;DHT22;39791;53.184;5.486;2023-12-20T13:58:32;15.10;99.90
53880;DHT22;39791;53.184;5.486;2023-12-20T14:00:57;15.70;99.90
53880;DHT22;39791;53.184;5.486;2023-12-20T14:03:23;16.30;99.90
53880;DHT22;39791;53.184;5.486;2023-12-20T14:05:49;16.10;99.90
53880;DHT22;39791;53.184;5.486;2023-12-20T14:08:14;15.80;99.90
53880;DHT22;39791;53.184;5.486;2023-12-20T14:10:40;15.70;99.90
53880;DHT22;39791;53.184;5.486;2023-12-20T14:13:05;15.80;99.90
53880;DHT22;39791;53.184;5.486;2023-12-20T14:15:31;15.70;99.90
53880;DHT22;39791;53.184;5.486;2023-12-20T14:18:04;16.10;99.90
53880;DHT22;39791;53.184;5.486;2023-12-20T14:20:31;15.90;99.90
53880;DHT22;39791;53.184;5.486;2023-12-20T14:22:57;16.40;99.90
53880;DHT22;39791;53.184;5.486;2023-12-20T14:25:23;15.80;99.90
53880;DHT22;39791;53.184;5.486;2023-12-20T14:27:48;16.10;21.20
53880;DHT22;39791;53.184;5.486;2023-12-20T14:30:14;16.80;99.90
53880;DHT22;39791;53.184;5.486;2023-12-20T14:32:40;15.90;99.90
53880;DHT22;39791;53.184;5.486;2023-12-20T14:35:06;15.90;1.00
53880;DHT22;39791;53.184;5.486;2023-12-20T14:37:32;15.90;1.00
53880;DHT22;39791;53.184;5.486;2023-12-20T14:39:57;16.30;99.90
53880;DHT22;39791;53.184;5.486;2023-12-20T14:42:23;15.90;1.00
53880;DHT22;39791;53.184;5.486;2023-12-20T14:44:49;15.90;1.00
53880;DHT22;39791;53.184;5.486;2023-12-20T14:47:14;16.40;1.00
53880;DHT22;39791;53.184;5.486;2023-12-20T14:49:41;16.70;21.50
53880;DHT22;39791;53.184;5.486;2023-12-20T14:52:08;16.10;78.90
53880;DHT22;39791;53.184;5.486;2023-12-20T14:54:36;15.90;99.90
53880;DHT22;39791;53.184;5.486;2023-12-20T14:57:02;16.20;99.90
53880;DHT22;39791;53.184;5.486;2023-12-20T14:59:28;16.60;99.90
53880;DHT22;39791;53.184;5.486;2023-12-20T15:01:53;16.60;99.90
53880;DHT22;39791;53.184;5.486;2023-12-20T15:04:20;16.50;99.90
53880;DHT22;39791;53.184;5.486;2023-12-20T15:06:51;16.10;99.90
53880;DHT22;39791;53.184;5.486;2023-12-20T15:09:17;16.50;1.00
53880;DHT22;39791;53.184;5.486;2023-12-20T15:11:43;15.90;99.90
53880;DHT22;39791;53.184;5.486;2023-12-20T15:14:09;16.00;99.90
53880;DHT22;39791;53.184;5.486;2023-12-20T15:16:35;15.80;99.90
53880;DHT22;39791;53.184;5.486;2023-12-20T15:19:01;16.10;1.00
53880;DHT22;39791;53.184;5.486;2023-12-20T15:21:26;15.70;43.10
53880;DHT22;39791;53.184;5.486;2023-12-20T15:23:57;16.50;99.90
53880;DHT22;39791;53.184;5.486;2023-12-20T15:26:34;15.80;99.90
53880;DHT22;39791;53.184;5.486;2023-12-20T15:29:00;16.60;1.00
53880;DHT22;39791;53.184;5.486;2023-12-20T15:31:27;15.90;15.50
53880;DHT22;39791;53.184;5.486;2023-12-20T15:33:53;16.60;99.90
53880;DHT22;39791;53.184;5.486;2023-12-20T15:36:19;15.90;99.90
53880;DHT22;39791;53.184;5.486;2023-12-20T15:38:45;16.50;99.90